Bentonville (XNA/KXNA)

Map

Destinations

Information

Location
Bentonville, AR
Local Time
14:46 / 2:46 pm
GMT Time
19:46 / 7:46 pm
Gates
A10
No FAA reported delays
METAR KXNA 281853Z 20006KT 8SM OVC013 19/17 A2968 RMK AO2 SLP042 T01890167
TAF KXNA 281727Z 2818/2918 18010KT P6SM OVC015 FM282100 18008KT P6SM BKN035 FM290200 16004KT P6SM VCTS BKN040CB TEMPO 2902/2906 2SM TSRA BR BKN020CB FM290600 11009KT P6SM VCTS OVC015CB TEMPO 2906/2910 2SM TSRA BR BKN020CB FM291000 14008KT 4SM -TSRA OVC012CB